sensor_id;sensor_type;location;lat;lon;timestamp;P1;durP1;ratioP1;P2;durP2;ratioP2
4616;SDS011;2321;42.704;23.384;2023-07-30T00:01:08;150.93;;;49.07;;
4616;SDS011;2321;42.704;23.384;2023-07-30T00:03:35;145.17;;;48.20;;
4616;SDS011;2321;42.704;23.384;2023-07-30T00:06:01;148.37;;;48.07;;
4616;SDS011;2321;42.704;23.384;2023-07-30T00:08:30;152.77;;;49.40;;
4616;SDS011;2321;42.704;23.384;2023-07-30T00:10:57;155.80;;;49.23;;
4616;SDS011;2321;42.704;23.384;2023-07-30T00:13:24;154.53;;;49.80;;
4616;SDS011;2321;42.704;23.384;2023-07-30T00:15:51;150.57;;;48.77;;
4616;SDS011;2321;42.704;23.384;2023-07-30T00:18:18;140.73;;;48.20;;
4616;SDS011;2321;42.704;23.384;2023-07-30T00:20:45;151.67;;;49.37;;
4616;SDS011;2321;42.704;23.384;2023-07-30T00:23:11;150.80;;;50.40;;
4616;SDS011;2321;42.704;23.384;2023-07-30T00:25:40;148.50;;;49.07;;
4616;SDS011;2321;42.704;23.384;2023-07-30T00:28:06;147.33;;;49.07;;
4616;SDS011;2321;42.704;23.384;2023-07-30T00:30:33;148.90;;;49.17;;
4616;SDS011;2321;42.704;23.384;2023-07-30T00:33:00;157.63;;;50.30;;
4616;SDS011;2321;42.704;23.384;2023-07-30T00:35:27;153.57;;;49.27;;
4616;SDS011;2321;42.704;23.384;2023-07-30T00:37:54;157.57;;;49.63;;
4616;SDS011;2321;42.704;23.384;2023-07-30T00:40:21;151.13;;;49.00;;
4616;SDS011;2321;42.704;23.384;2023-07-30T00:42:49;135.40;;;47.43;;
4616;SDS011;2321;42.704;23.384;2023-07-30T00:45:16;138.10;;;48.00;;
4616;SDS011;2321;42.704;23.384;2023-07-30T00:47:43;140.63;;;47.90;;
4616;SDS011;2321;42.704;23.384;2023-07-30T00:50:10;146.70;;;48.77;;
4616;SDS011;2321;42.704;23.384;2023-07-30T00:52:40;154.43;;;49.53;;
4616;SDS011;2321;42.704;23.384;2023-07-30T00:55:07;154.10;;;49.50;;
4616;SDS011;2321;42.704;23.384;2023-07-30T00:57:35;157.17;;;49.63;;
4616;SDS011;2321;42.704;23.384;2023-07-30T01:00:05;155.27;;;49.80;;
4616;SDS011;2321;42.704;23.384;2023-07-30T01:02:34;147.67;;;48.47;;
4616;SDS011;2321;42.704;23.384;2023-07-30T01:05:01;151.70;;;48.77;;
4616;SDS011;2321;42.704;23.384;2023-07-30T01:07:29;152.37;;;49.57;;
4616;SDS011;2321;42.704;23.384;2023-07-30T01:09:56;154.57;;;49.10;;
4616;SDS011;2321;42.704;23.384;2023-07-30T01:12:23;152.60;;;49.60;;
4616;SDS011;2321;42.704;23.384;2023-07-30T01:14:50;148.17;;;48.50;;
4616;SDS011;2321;42.704;23.384;2023-07-30T01:17:20;141.20;;;48.60;;
4616;SDS011;2321;42.704;23.384;2023-07-30T01:19:48;132.27;;;46.60;;
4616;SDS011;2321;42.704;23.384;2023-07-30T01:22:17;129.53;;;46.37;;
4616;SDS011;2321;42.704;23.384;2023-07-30T01:24:43;144.83;;;48.50;;
4616;SDS011;2321;42.704;23.384;2023-07-30T01:27:11;147.43;;;49.03;;
4616;SDS011;2321;42.704;23.384;2023-07-30T01:29:44;149.23;;;49.00;;
4616;SDS011;2321;42.704;23.384;2023-07-30T01:32:20;135.53;;;46.90;;
4616;SDS011;2321;42.704;23.384;2023-07-30T01:34:51;134.67;;;47.27;;
4616;SDS011;2321;42.704;23.384;2023-07-30T01:37:20;134.20;;;47.67;;
4616;SDS011;2321;42.704;23.384;2023-07-30T01:39:48;141.80;;;48.53;;
4616;SDS011;2321;42.704;23.384;2023-07-30T01:42:16;133.00;;;47.60;;
4616;SDS011;2321;42.704;23.384;2023-07-30T01:44:43;137.70;;;47.87;;
4616;SDS011;2321;42.704;23.384;2023-07-30T01:47:10;139.07;;;48.53;;
4616;SDS011;2321;42.704;23.384;2023-07-30T01:49:36;142.20;;;48.17;;
4616;SDS011;2321;42.704;23.384;2023-07-30T01:52:03;135.70;;;47.17;;
4616;SDS011;2321;42.704;23.384;2023-07-30T01:54:32;135.90;;;47.50;;
4616;SDS011;2321;42.704;23.384;2023-07-30T01:56:59;135.03;;;47.27;;
4616;SDS011;2321;42.704;23.384;2023-07-30T01:59:26;129.90;;;47.00;;
4616;SDS011;2321;42.704;23.384;2023-07-30T02:01:53;132.07;;;47.00;;
4616;SDS011;2321;42.704;23.384;2023-07-30T02:04:20;122.43;;;45.70;;
4616;SDS011;2321;42.704;23.384;2023-07-30T02:06:47;116.00;;;45.00;;
4616;SDS011;2321;42.704;23.384;2023-07-30T02:09:14;114.63;;;44.33;;
4616;SDS011;2321;42.704;23.384;2023-07-30T02:11:42;103.53;;;43.00;;
4616;SDS011;2321;42.704;23.384;2023-07-30T02:14:09;105.30;;;42.70;;
4616;SDS011;2321;42.704;23.384;2023-07-30T02:16:36;97.40;;;41.43;;
4616;SDS011;2321;42.704;23.384;2023-07-30T02:19:03;109.50;;;43.70;;
4616;SDS011;2321;42.704;23.384;2023-07-30T02:21:30;103.07;;;43.17;;
4616;SDS011;2321;42.704;23.384;2023-07-30T02:23:58;105.37;;;42.23;;
4616;SDS011;2321;42.704;23.384;2023-07-30T02:26:25;124.93;;;45.73;;
4616;SDS011;2321;42.704;23.384;2023-07-30T02:28:54;119.30;;;45.03;;
4616;SDS011;2321;42.704;23.384;2023-07-30T02:31:20;119.37;;;44.73;;
4616;SDS011;2321;42.704;23.384;2023-07-30T02:33:47;126.33;;;45.80;;
4616;SDS011;2321;42.704;23.384;2023-07-30T02:36:14;123.57;;;46.03;;
4616;SDS011;2321;42.704;23.384;2023-07-30T02:38:41;129.77;;;47.57;;
4616;SDS011;2321;42.704;23.384;2023-07-30T02:41:08;135.97;;;47.40;;
4616;SDS011;2321;42.704;23.384;2023-07-30T02:43:35;136.07;;;47.20;;
4616;SDS011;2321;42.704;23.384;2023-07-30T02:46:03;137.60;;;48.10;;
4616;SDS011;2321;42.704;23.384;2023-07-30T02:48:32;134.37;;;47.60;;
4616;SDS011;2321;42.704;23.384;2023-07-30T02:50:58;130.63;;;47.53;;
4616;SDS011;2321;42.704;23.384;2023-07-30T02:53:25;128.30;;;47.27;;
4616;SDS011;2321;42.704;23.384;2023-07-30T02:55:52;86.63;;;39.77;;
4616;SDS011;2321;42.704;23.384;2023-07-30T02:58:19;79.63;;;38.63;;
4616;SDS011;2321;42.704;23.384;2023-07-30T03:00:46;57.00;;;33.33;;
4616;SDS011;2321;42.704;23.384;2023-07-30T03:03:16;74.97;;;36.80;;
4616;SDS011;2321;42.704;23.384;2023-07-30T03:05:43;87.57;;;39.83;;
4616;SDS011;2321;42.704;23.384;2023-07-30T03:08:09;104.00;;;42.83;;
4616;SDS011;2321;42.704;23.384;2023-07-30T03:10:36;135.70;;;48.03;;
4616;SDS011;2321;42.704;23.384;2023-07-30T03:13:03;133.17;;;47.93;;
4616;SDS011;2321;42.704;23.384;2023-07-30T03:15:30;133.60;;;47.20;;
4616;SDS011;2321;42.704;23.384;2023-07-30T03:17:57;127.33;;;46.93;;
4616;SDS011;2321;42.704;23.384;2023-07-30T03:20:25;134.53;;;47.13;;
4616;SDS011;2321;42.704;23.384;2023-07-30T03:22:52;137.83;;;48.63;;
4616;SDS011;2321;42.704;23.384;2023-07-30T03:25:19;131.87;;;47.73;;
4616;SDS011;2321;42.704;23.384;2023-07-30T03:27:46;74.43;;;38.20;;
4616;SDS011;2321;42.704;23.384;2023-07-30T03:30:12;86.40;;;39.00;;
4616;SDS011;2321;42.704;23.384;2023-07-30T03:32:39;119.87;;;45.70;;
4616;SDS011;2321;42.704;23.384;2023-07-30T03:35:06;118.83;;;45.10;;
4616;SDS011;2321;42.704;23.384;2023-07-30T03:37:35;116.17;;;45.13;;
4616;SDS011;2321;42.704;23.384;2023-07-30T03:40:02;132.00;;;47.10;;
4616;SDS011;2321;42.704;23.384;2023-07-30T03:42:30;111.17;;;44.00;;
4616;SDS011;2321;42.704;23.384;2023-07-30T03:44:57;131.60;;;47.17;;
4616;SDS011;2321;42.704;23.384;2023-07-30T03:47:23;141.53;;;49.07;;
4616;SDS011;2321;42.704;23.384;2023-07-30T03:49:50;137.10;;;47.97;;
4616;SDS011;2321;42.704;23.384;2023-07-30T03:52:17;138.37;;;48.70;;
4616;SDS011;2321;42.704;23.384;2023-07-30T03:54:45;126.00;;;46.93;;
4616;SDS011;2321;42.704;23.384;2023-07-30T03:57:12;120.10;;;45.70;;
4616;SDS011;2321;42.704;23.384;2023-07-30T03:59:39;122.90;;;46.03;;
4616;SDS011;2321;42.704;23.384;2023-07-30T04:02:06;128.77;;;47.00;;
4616;SDS011;2321;42.704;23.384;2023-07-30T04:04:33;133.00;;;47.77;;
4616;SDS011;2321;42.704;23.384;2023-07-30T04:07:00;137.27;;;47.30;;
4616;SDS011;2321;42.704;23.384;2023-07-30T04:09:26;133.23;;;46.93;;
4616;SDS011;2321;42.704;23.384;2023-07-30T04:11:55;143.50;;;48.80;;
4616;SDS011;2321;42.704;23.384;2023-07-30T04:14:21;139.50;;;47.67;;
4616;SDS011;2321;42.704;23.384;2023-07-30T04:16:48;143.50;;;49.03;;
4616;SDS011;2321;42.704;23.384;2023-07-30T04:19:15;143.23;;;49.50;;
4616;SDS011;2321;42.704;23.384;2023-07-30T04:21:42;144.47;;;49.30;;
4616;SDS011;2321;42.704;23.384;2023-07-30T04:24:09;145.30;;;49.63;;
4616;SDS011;2321;42.704;23.384;2023-07-30T04:26:36;142.70;;;48.97;;
4616;SDS011;2321;42.704;23.384;2023-07-30T04:29:04;146.80;;;49.00;;
4616;SDS011;2321;42.704;23.384;2023-07-30T04:31:31;151.63;;;50.07;;
4616;SDS011;2321;42.704;23.384;2023-07-30T04:33:58;152.00;;;49.63;;
4616;SDS011;2321;42.704;23.384;2023-07-30T04:36:25;154.90;;;50.27;;
4616;SDS011;2321;42.704;23.384;2023-07-30T04:38:52;151.80;;;50.10;;
4616;SDS011;2321;42.704;23.384;2023-07-30T04:41:20;148.03;;;49.97;;
4616;SDS011;2321;42.704;23.384;2023-07-30T04:43:47;139.57;;;49.00;;
4616;SDS011;2321;42.704;23.384;2023-07-30T04:46:15;143.93;;;48.67;;
4616;SDS011;2321;42.704;23.384;2023-07-30T04:48:42;148.90;;;49.40;;
4616;SDS011;2321;42.704;23.384;2023-07-30T04:51:09;152.83;;;49.53;;
4616;SDS011;2321;42.704;23.384;2023-07-30T04:53:36;156.30;;;50.20;;
4616;SDS011;2321;42.704;23.384;2023-07-30T04:56:03;154.47;;;49.77;;
4616;SDS011;2321;42.704;23.384;2023-07-30T04:58:30;159.20;;;50.90;;
4616;SDS011;2321;42.704;23.384;2023-07-30T05:00:57;157.00;;;50.47;;
4616;SDS011;2321;42.704;23.384;2023-07-30T05:03:25;156.00;;;50.27;;
4616;SDS011;2321;42.704;23.384;2023-07-30T05:05:52;161.63;;;50.30;;
4616;SDS011;2321;42.704;23.384;2023-07-30T05:08:19;167.27;;;51.97;;
4616;SDS011;2321;42.704;23.384;2023-07-30T05:10:46;166.63;;;51.83;;
4616;SDS011;2321;42.704;23.384;2023-07-30T05:13:13;167.27;;;51.40;;
4616;SDS011;2321;42.704;23.384;2023-07-30T05:15:39;167.50;;;51.30;;
4616;SDS011;2321;42.704;23.384;2023-07-30T05:18:07;144.23;;;48.80;;
4616;SDS011;2321;42.704;23.384;2023-07-30T05:20:35;141.37;;;47.77;;
4616;SDS011;2321;42.704;23.384;2023-07-30T05:23:02;145.70;;;48.57;;
4616;SDS011;2321;42.704;23.384;2023-07-30T05:25:28;149.80;;;48.67;;
4616;SDS011;2321;42.704;23.384;2023-07-30T05:27:55;146.40;;;48.90;;
4616;SDS011;2321;42.704;23.384;2023-07-30T05:30:22;143.77;;;48.30;;
4616;SDS011;2321;42.704;23.384;2023-07-30T05:32:49;140.53;;;47.63;;
4616;SDS011;2321;42.704;23.384;2023-07-30T05:35:16;138.90;;;48.20;;
4616;SDS011;2321;42.704;23.384;2023-07-30T05:37:45;145.13;;;49.47;;
4616;SDS011;2321;42.704;23.384;2023-07-30T05:40:12;137.00;;;47.80;;
4616;SDS011;2321;42.704;23.384;2023-07-30T05:42:39;145.37;;;48.60;;
4616;SDS011;2321;42.704;23.384;2023-07-30T05:45:06;145.83;;;48.70;;
4616;SDS011;2321;42.704;23.384;2023-07-30T05:47:34;156.77;;;51.87;;
4616;SDS011;2321;42.704;23.384;2023-07-30T05:50:01;148.20;;;50.43;;
4616;SDS011;2321;42.704;23.384;2023-07-30T05:52:28;139.40;;;48.10;;
4616;SDS011;2321;42.704;23.384;2023-07-30T05:54:57;164.53;;;53.60;;
4616;SDS011;2321;42.704;23.384;2023-07-30T05:57:24;151.87;;;50.93;;
4616;SDS011;2321;42.704;23.384;2023-07-30T05:59:51;141.03;;;48.40;;
4616;SDS011;2321;42.704;23.384;2023-07-30T06:02:17;171.33;;;57.17;;
4616;SDS011;2321;42.704;23.384;2023-07-30T06:04:44;134.50;;;46.90;;
4616;SDS011;2321;42.704;23.384;2023-07-30T06:07:11;146.60;;;50.57;;
4616;SDS011;2321;42.704;23.384;2023-07-30T06:09:38;138.97;;;48.53;;
4616;SDS011;2321;42.704;23.384;2023-07-30T06:12:07;148.63;;;49.90;;
4616;SDS011;2321;42.704;23.384;2023-07-30T06:14:34;143.80;;;49.03;;
4616;SDS011;2321;42.704;23.384;2023-07-30T06:17:01;149.93;;;50.63;;
4616;SDS011;2321;42.704;23.384;2023-07-30T06:19:27;160.87;;;53.00;;
4616;SDS011;2321;42.704;23.384;2023-07-30T06:21:54;135.17;;;45.27;;
4616;SDS011;2321;42.704;23.384;2023-07-30T06:24:21;139.47;;;47.47;;
4616;SDS011;2321;42.704;23.384;2023-07-30T06:26:48;142.00;;;47.87;;
4616;SDS011;2321;42.704;23.384;2023-07-30T06:29:16;144.90;;;48.50;;
4616;SDS011;2321;42.704;23.384;2023-07-30T06:31:43;145.80;;;48.50;;
4616;SDS011;2321;42.704;23.384;2023-07-30T06:34:10;146.63;;;49.00;;
4616;SDS011;2321;42.704;23.384;2023-07-30T06:36:37;148.40;;;49.40;;
4616;SDS011;2321;42.704;23.384;2023-07-30T06:39:04;142.20;;;48.70;;
4616;SDS011;2321;42.704;23.384;2023-07-30T06:41:30;135.60;;;47.30;;
4616;SDS011;2321;42.704;23.384;2023-07-30T06:43:57;130.73;;;46.27;;
4616;SDS011;2321;42.704;23.384;2023-07-30T06:46:26;140.40;;;48.10;;
4616;SDS011;2321;42.704;23.384;2023-07-30T06:48:52;138.50;;;48.27;;
4616;SDS011;2321;42.704;23.384;2023-07-30T06:51:18;131.37;;;46.80;;
4616;SDS011;2321;42.704;23.384;2023-07-30T06:53:46;132.73;;;47.10;;
4616;SDS011;2321;42.704;23.384;2023-07-30T06:56:13;134.10;;;47.63;;
4616;SDS011;2321;42.704;23.384;2023-07-30T06:58:40;132.33;;;47.30;;
4616;SDS011;2321;42.704;23.384;2023-07-30T07:01:07;113.60;;;44.77;;
4616;SDS011;2321;42.704;23.384;2023-07-30T07:03:35;115.17;;;44.63;;
4616;SDS011;2321;42.704;23.384;2023-07-30T07:06:02;114.00;;;45.63;;
4616;SDS011;2321;42.704;23.384;2023-07-30T07:08:29;113.87;;;45.20;;
4616;SDS011;2321;42.704;23.384;2023-07-30T07:10:58;108.40;;;44.50;;
4616;SDS011;2321;42.704;23.384;2023-07-30T07:13:25;99.40;;;42.70;;
4616;SDS011;2321;42.704;23.384;2023-07-30T07:15:52;96.07;;;41.13;;
4616;SDS011;2321;42.704;23.384;2023-07-30T07:18:19;77.23;;;38.97;;
4616;SDS011;2321;42.704;23.384;2023-07-30T07:20:47;150.77;;;49.37;;
4616;SDS011;2321;42.704;23.384;2023-07-30T07:23:16;173.40;;;53.00;;
4616;SDS011;2321;42.704;23.384;2023-07-30T07:25:44;171.47;;;52.67;;
4616;SDS011;2321;42.704;23.384;2023-07-30T07:28:10;171.13;;;50.63;;
4616;SDS011;2321;42.704;23.384;2023-07-30T07:30:37;167.97;;;49.00;;
4616;SDS011;2321;42.704;23.384;2023-07-30T07:33:04;154.90;;;50.47;;
4616;SDS011;2321;42.704;23.384;2023-07-30T07:35:31;153.80;;;49.83;;
4616;SDS011;2321;42.704;23.384;2023-07-30T07:38:00;158.77;;;50.63;;
4616;SDS011;2321;42.704;23.384;2023-07-30T07:40:27;162.07;;;50.97;;
4616;SDS011;2321;42.704;23.384;2023-07-30T07:42:54;154.97;;;49.53;;
4616;SDS011;2321;42.704;23.384;2023-07-30T07:45:21;154.53;;;50.07;;
4616;SDS011;2321;42.704;23.384;2023-07-30T07:47:48;107.80;;;43.10;;
4616;SDS011;2321;42.704;23.384;2023-07-30T07:50:15;107.70;;;43.13;;
4616;SDS011;2321;42.704;23.384;2023-07-30T07:52:42;109.93;;;43.60;;
4616;SDS011;2321;42.704;23.384;2023-07-30T07:55:10;109.87;;;44.63;;
4616;SDS011;2321;42.704;23.384;2023-07-30T07:57:37;111.40;;;44.07;;
4616;SDS011;2321;42.704;23.384;2023-07-30T08:00:05;104.80;;;43.27;;
4616;SDS011;2321;42.704;23.384;2023-07-30T08:02:34;111.17;;;44.67;;
4616;SDS011;2321;42.704;23.384;2023-07-30T08:05:00;120.23;;;45.97;;
4616;SDS011;2321;42.704;23.384;2023-07-30T08:07:28;129.97;;;47.03;;
4616;SDS011;2321;42.704;23.384;2023-07-30T08:09:58;123.87;;;45.90;;
4616;SDS011;2321;42.704;23.384;2023-07-30T08:12:26;118.83;;;44.67;;
4616;SDS011;2321;42.704;23.384;2023-07-30T08:14:53;109.50;;;43.40;;
4616;SDS011;2321;42.704;23.384;2023-07-30T08:17:21;102.73;;;42.00;;
4616;SDS011;2321;42.704;23.384;2023-07-30T08:19:48;95.13;;;41.17;;
4616;SDS011;2321;42.704;23.384;2023-07-30T08:22:14;127.00;;;46.13;;
4616;SDS011;2321;42.704;23.384;2023-07-30T08:24:41;121.17;;;45.27;;
4616;SDS011;2321;42.704;23.384;2023-07-30T08:27:08;107.97;;;42.47;;
4616;SDS011;2321;42.704;23.384;2023-07-30T08:29:36;109.73;;;44.37;;
4616;SDS011;2321;42.704;23.384;2023-07-30T08:32:04;120.13;;;44.27;;
4616;SDS011;2321;42.704;23.384;2023-07-30T08:34:31;130.43;;;45.77;;
4616;SDS011;2321;42.704;23.384;2023-07-30T08:36:58;113.70;;;43.27;;
4616;SDS011;2321;42.704;23.384;2023-07-30T08:39:25;116.90;;;43.83;;
4616;SDS011;2321;42.704;23.384;2023-07-30T08:41:52;119.50;;;44.40;;
4616;SDS011;2321;42.704;23.384;2023-07-30T08:44:19;125.30;;;45.33;;
4616;SDS011;2321;42.704;23.384;2023-07-30T08:46:47;136.40;;;47.17;;
4616;SDS011;2321;42.704;23.384;2023-07-30T08:49:15;125.83;;;46.00;;
4616;SDS011;2321;42.704;23.384;2023-07-30T08:51:41;150.97;;;48.60;;
4616;SDS011;2321;42.704;23.384;2023-07-30T08:54:10;138.17;;;46.90;;
4616;SDS011;2321;42.704;23.384;2023-07-30T08:56:41;128.23;;;45.47;;
4616;SDS011;2321;42.704;23.384;2023-07-30T08:59:08;122.50;;;46.07;;
4616;SDS011;2321;42.704;23.384;2023-07-30T09:01:37;114.20;;;43.27;;
4616;SDS011;2321;42.704;23.384;2023-07-30T09:04:07;119.60;;;43.87;;
4616;SDS011;2321;42.704;23.384;2023-07-30T09:06:35;112.43;;;45.37;;
4616;SDS011;2321;42.704;23.384;2023-07-30T09:09:03;98.63;;;41.47;;
4616;SDS011;2321;42.704;23.384;2023-07-30T09:11:31;95.30;;;41.53;;
4616;SDS011;2321;42.704;23.384;2023-07-30T09:14:01;84.77;;;38.70;;
4616;SDS011;2321;42.704;23.384;2023-07-30T09:16:29;92.93;;;40.57;;
4616;SDS011;2321;42.704;23.384;2023-07-30T09:18:55;89.80;;;40.47;;
4616;SDS011;2321;42.704;23.384;2023-07-30T09:21:30;102.70;;;42.60;;
4616;SDS011;2321;42.704;23.384;2023-07-30T09:23:57;89.67;;;40.57;;
4616;SDS011;2321;42.704;23.384;2023-07-30T09:26:31;87.97;;;39.43;;
4616;SDS011;2321;42.704;23.384;2023-07-30T09:29:07;101.77;;;42.20;;
4616;SDS011;2321;42.704;23.384;2023-07-30T09:31:42;110.80;;;43.00;;
4616;SDS011;2321;42.704;23.384;2023-07-30T09:34:14;135.73;;;47.30;;
4616;SDS011;2321;42.704;23.384;2023-07-30T09:36:45;144.90;;;48.30;;
4616;SDS011;2321;42.704;23.384;2023-07-30T09:39:14;148.87;;;48.97;;
4616;SDS011;2321;42.704;23.384;2023-07-30T09:41:42;152.07;;;49.30;;
4616;SDS011;2321;42.704;23.384;2023-07-30T09:44:09;154.17;;;49.00;;
4616;SDS011;2321;42.704;23.384;2023-07-30T09:46:41;156.03;;;49.33;;
4616;SDS011;2321;42.704;23.384;2023-07-30T09:49:09;161.30;;;50.33;;
4616;SDS011;2321;42.704;23.384;2023-07-30T09:51:36;167.27;;;51.53;;
4616;SDS011;2321;42.704;23.384;2023-07-30T09:54:05;169.10;;;51.90;;
4616;SDS011;2321;42.704;23.384;2023-07-30T09:56:32;172.67;;;53.10;;
4616;SDS011;2321;42.704;23.384;2023-07-30T09:58:59;137.27;;;46.33;;
4616;SDS011;2321;42.704;23.384;2023-07-30T10:01:26;165.90;;;51.47;;
4616;SDS011;2321;42.704;23.384;2023-07-30T10:03:56;143.27;;;49.90;;
4616;SDS011;2321;42.704;23.384;2023-07-30T10:06:24;162.37;;;53.73;;
4616;SDS011;2321;42.704;23.384;2023-07-30T10:08:53;156.43;;;51.83;;
4616;SDS011;2321;42.704;23.384;2023-07-30T10:11:24;155.20;;;50.60;;
4616;SDS011;2321;42.704;23.384;2023-07-30T10:13:52;165.93;;;54.10;;
4616;SDS011;2321;42.704;23.384;2023-07-30T10:16:24;150.17;;;50.10;;
4616;SDS011;2321;42.704;23.384;2023-07-30T10:18:55;151.23;;;49.57;;
4616;SDS011;2321;42.704;23.384;2023-07-30T10:21:23;160.87;;;50.67;;
4616;SDS011;2321;42.704;23.384;2023-07-30T10:23:57;173.83;;;51.47;;
4616;SDS011;2321;42.704;23.384;2023-07-30T10:26:30;207.40;;;57.30;;
4616;SDS011;2321;42.704;23.384;2023-07-30T10:29:14;164.90;;;46.10;;
4616;SDS011;2321;42.704;23.384;2023-07-30T10:31:43;158.57;;;43.83;;
4616;SDS011;2321;42.704;23.384;2023-07-30T10:34:13;173.17;;;48.97;;
4616;SDS011;2321;42.704;23.384;2023-07-30T10:36:41;159.17;;;43.83;;
4616;SDS011;2321;42.704;23.384;2023-07-30T10:39:10;194.27;;;53.90;;
4616;SDS011;2321;42.704;23.384;2023-07-30T10:41:39;183.03;;;53.83;;
4616;SDS011;2321;42.704;23.384;2023-07-30T10:44:06;157.97;;;43.33;;
4616;SDS011;2321;42.704;23.384;2023-07-30T10:46:33;173.73;;;47.73;;
4616;SDS011;2321;42.704;23.384;2023-07-30T10:49:00;183.53;;;48.93;;
4616;SDS011;2321;42.704;23.384;2023-07-30T10:51:27;190.00;;;54.93;;
4616;SDS011;2321;42.704;23.384;2023-07-30T10:53:54;154.50;;;49.53;;
4616;SDS011;2321;42.704;23.384;2023-07-30T10:56:21;151.10;;;48.83;;
4616;SDS011;2321;42.704;23.384;2023-07-30T10:58:51;157.40;;;51.30;;
4616;SDS011;2321;42.704;23.384;2023-07-30T11:01:19;146.93;;;49.13;;
4616;SDS011;2321;42.704;23.384;2023-07-30T11:03:48;154.03;;;50.47;;
4616;SDS011;2321;42.704;23.384;2023-07-30T11:06:20;169.43;;;54.97;;
4616;SDS011;2321;42.704;23.384;2023-07-30T11:08:48;148.53;;;49.20;;
4616;SDS011;2321;42.704;23.384;2023-07-30T11:11:15;149.87;;;50.10;;
4616;SDS011;2321;42.704;23.384;2023-07-30T11:13:42;160.70;;;52.13;;
4616;SDS011;2321;42.704;23.384;2023-07-30T11:16:13;166.57;;;52.37;;
4616;SDS011;2321;42.704;23.384;2023-07-30T11:18:40;174.90;;;54.50;;
4616;SDS011;2321;42.704;23.384;2023-07-30T11:21:08;177.30;;;56.30;;
4616;SDS011;2321;42.704;23.384;2023-07-30T11:23:37;155.17;;;50.50;;
4616;SDS011;2321;42.704;23.384;2023-07-30T11:26:07;153.83;;;50.67;;
4616;SDS011;2321;42.704;23.384;2023-07-30T11:28:35;142.97;;;49.10;;
4616;SDS011;2321;42.704;23.384;2023-07-30T11:31:04;158.13;;;52.33;;
4616;SDS011;2321;42.704;23.384;2023-07-30T11:33:35;167.27;;;52.77;;
4616;SDS011;2321;42.704;23.384;2023-07-30T11:36:03;173.33;;;54.13;;
4616;SDS011;2321;42.704;23.384;2023-07-30T11:38:32;165.33;;;54.03;;
4616;SDS011;2321;42.704;23.384;2023-07-30T11:41:00;158.40;;;50.80;;
4616;SDS011;2321;42.704;23.384;2023-07-30T11:43:28;159.87;;;51.03;;
4616;SDS011;2321;42.704;23.384;2023-07-30T11:46:06;146.17;;;44.93;;
4616;SDS011;2321;42.704;23.384;2023-07-30T11:48:38;175.97;;;54.47;;
4616;SDS011;2321;42.704;23.384;2023-07-30T11:51:06;188.93;;;57.70;;
4616;SDS011;2321;42.704;23.384;2023-07-30T11:53:44;143.77;;;44.17;;
4616;SDS011;2321;42.704;23.384;2023-07-30T11:56:19;144.13;;;42.40;;
4616;SDS011;2321;42.704;23.384;2023-07-30T11:58:47;154.37;;;44.77;;
4616;SDS011;2321;42.704;23.384;2023-07-30T12:01:15;189.43;;;55.67;;
4616;SDS011;2321;42.704;23.384;2023-07-30T12:03:44;156.30;;;45.70;;
4616;SDS011;2321;42.704;23.384;2023-07-30T12:06:12;171.57;;;50.90;;
4616;SDS011;2321;42.704;23.384;2023-07-30T12:08:39;179.27;;;51.57;;
4616;SDS011;2321;42.704;23.384;2023-07-30T12:11:06;157.60;;;50.67;;
4616;SDS011;2321;42.704;23.384;2023-07-30T12:13:41;163.80;;;53.03;;
4616;SDS011;2321;42.704;23.384;2023-07-30T12:16:09;157.40;;;50.90;;
4616;SDS011;2321;42.704;23.384;2023-07-30T12:18:37;144.07;;;47.80;;
4616;SDS011;2321;42.704;23.384;2023-07-30T12:21:06;156.50;;;50.73;;
4616;SDS011;2321;42.704;23.384;2023-07-30T12:23:33;157.97;;;52.17;;
4616;SDS011;2321;42.704;23.384;2023-07-30T12:26:01;144.50;;;49.17;;
4616;SDS011;2321;42.704;23.384;2023-07-30T12:28:30;137.63;;;47.07;;
4616;SDS011;2321;42.704;23.384;2023-07-30T12:30:58;154.83;;;51.50;;
4616;SDS011;2321;42.704;23.384;2023-07-30T12:33:45;151.30;;;50.03;;
4616;SDS011;2321;42.704;23.384;2023-07-30T12:36:24;139.50;;;47.07;;
4616;SDS011;2321;42.704;23.384;2023-07-30T12:38:56;139.83;;;47.43;;
4616;SDS011;2321;42.704;23.384;2023-07-30T12:41:41;148.00;;;50.20;;
4616;SDS011;2321;42.704;23.384;2023-07-30T12:44:09;139.73;;;48.20;;
4616;SDS011;2321;42.704;23.384;2023-07-30T12:46:38;144.20;;;49.40;;
4616;SDS011;2321;42.704;23.384;2023-07-30T12:49:06;141.13;;;47.70;;
4616;SDS011;2321;42.704;23.384;2023-07-30T12:51:35;139.13;;;47.73;;
4616;SDS011;2321;42.704;23.384;2023-07-30T12:54:04;130.67;;;46.30;;
4616;SDS011;2321;42.704;23.384;2023-07-30T12:56:30;141.63;;;48.37;;
4616;SDS011;2321;42.704;23.384;2023-07-30T12:58:57;124.83;;;44.80;;
4616;SDS011;2321;42.704;23.384;2023-07-30T13:01:24;141.90;;;48.13;;
4616;SDS011;2321;42.704;23.384;2023-07-30T13:03:51;143.57;;;49.43;;
4616;SDS011;2321;42.704;23.384;2023-07-30T13:06:19;147.67;;;50.57;;
4616;SDS011;2321;42.704;23.384;2023-07-30T13:08:48;151.33;;;51.43;;
4616;SDS011;2321;42.704;23.384;2023-07-30T13:11:14;141.90;;;48.07;;
4616;SDS011;2321;42.704;23.384;2023-07-30T13:13:41;149.10;;;50.93;;
4616;SDS011;2321;42.704;23.384;2023-07-30T13:16:08;139.10;;;48.07;;
4616;SDS011;2321;42.704;23.384;2023-07-30T13:18:36;143.93;;;49.00;;
4616;SDS011;2321;42.704;23.384;2023-07-30T13:21:03;132.33;;;42.57;;
4616;SDS011;2321;42.704;23.384;2023-07-30T13:23:29;149.30;;;51.23;;
4616;SDS011;2321;42.704;23.384;2023-07-30T13:25:59;138.60;;;47.57;;
4616;SDS011;2321;42.704;23.384;2023-07-30T13:28:26;137.77;;;48.33;;
4616;SDS011;2321;42.704;23.384;2023-07-30T13:30:53;141.47;;;50.87;;
4616;SDS011;2321;42.704;23.384;2023-07-30T13:33:21;149.93;;;51.73;;
4616;SDS011;2321;42.704;23.384;2023-07-30T13:35:48;124.73;;;47.40;;
4616;SDS011;2321;42.704;23.384;2023-07-30T13:38:15;130.97;;;47.63;;
4616;SDS011;2321;42.704;23.384;2023-07-30T13:40:41;128.60;;;46.77;;
4616;SDS011;2321;42.704;23.384;2023-07-30T13:43:10;135.00;;;48.87;;
4616;SDS011;2321;42.704;23.384;2023-07-30T13:45:37;123.37;;;45.60;;
4616;SDS011;2321;42.704;23.384;2023-07-30T13:48:07;137.47;;;48.77;;
4616;SDS011;2321;42.704;23.384;2023-07-30T13:50:34;134.60;;;48.70;;
4616;SDS011;2321;42.704;23.384;2023-07-30T13:53:01;136.53;;;48.00;;
4616;SDS011;2321;42.704;23.384;2023-07-30T13:55:28;125.97;;;45.83;;
4616;SDS011;2321;42.704;23.384;2023-07-30T13:57:54;118.83;;;45.60;;
4616;SDS011;2321;42.704;23.384;2023-07-30T14:00:23;106.33;;;43.40;;
4616;SDS011;2321;42.704;23.384;2023-07-30T14:02:50;112.53;;;45.37;;
4616;SDS011;2321;42.704;23.384;2023-07-30T14:05:17;107.03;;;43.83;;
4616;SDS011;2321;42.704;23.384;2023-07-30T14:07:44;102.57;;;43.60;;
4616;SDS011;2321;42.704;23.384;2023-07-30T14:10:11;91.10;;;41.30;;
4616;SDS011;2321;42.704;23.384;2023-07-30T14:12:38;104.50;;;43.47;;
4616;SDS011;2321;42.704;23.384;2023-07-30T14:15:06;104.50;;;43.00;;
4616;SDS011;2321;42.704;23.384;2023-07-30T14:17:35;101.30;;;43.37;;
4616;SDS011;2321;42.704;23.384;2023-07-30T14:20:02;109.17;;;44.17;;
4616;SDS011;2321;42.704;23.384;2023-07-30T14:22:29;101.90;;;42.70;;
4616;SDS011;2321;42.704;23.384;2023-07-30T14:24:56;87.10;;;40.73;;
4616;SDS011;2321;42.704;23.384;2023-07-30T14:27:23;75.87;;;38.47;;